createdAt,value
2018-07-06T00:02:22.443Z,19.11
2018-07-06T00:05:02.834Z,19.19
2018-07-06T00:07:42.744Z,19.17
2018-07-06T00:10:22.917Z,19.18
2018-07-06T00:13:03.058Z,19.04
2018-07-06T00:15:43.132Z,19.00
2018-07-06T00:18:23.314Z,19.07
2018-07-06T00:21:03.627Z,19.00
2018-07-06T00:23:43.771Z,19.04
2018-07-06T00:26:23.987Z,18.97
2018-07-06T00:29:04.059Z,18.93
2018-07-06T00:31:44.381Z,18.99
2018-07-06T00:34:24.386Z,19.05
2018-07-06T00:37:04.534Z,19.04
2018-07-06T00:39:44.599Z,19.04
2018-07-06T00:42:24.754Z,19.03
2018-07-06T00:45:04.924Z,18.88
2018-07-06T00:47:44.893Z,18.82
2018-07-06T00:50:25.009Z,18.81
2018-07-06T00:53:05.290Z,18.79
2018-07-06T00:55:45.221Z,18.69
2018-07-06T00:58:25.413Z,18.51
2018-07-06T01:01:05.541Z,18.52
2018-07-06T01:03:45.773Z,18.55
2018-07-06T01:06:25.867Z,18.62
2018-07-06T01:09:06.031Z,18.74
2018-07-06T01:11:46.187Z,18.73
2018-07-06T01:14:26.171Z,18.78
2018-07-06T01:17:10.562Z,18.73
2018-07-06T01:19:51.178Z,18.58
2018-07-06T01:22:31.373Z,18.72
2018-07-06T01:25:11.426Z,18.65
2018-07-06T01:27:51.648Z,18.73
2018-07-06T01:30:31.706Z,18.74
2018-07-06T01:33:11.848Z,18.77
2018-07-06T01:35:51.902Z,18.79
2018-07-06T01:38:32.143Z,18.46
2018-07-06T01:41:12.120Z,18.34
2018-07-06T01:43:52.271Z,18.20
2018-07-06T01:46:32.167Z,18.35
2018-07-06T01:49:12.348Z,18.34
2018-07-06T01:51:52.881Z,18.36
2018-07-06T01:54:33.061Z,18.39
2018-07-06T01:57:13.067Z,18.39
2018-07-06T01:59:53.194Z,18.32
2018-07-06T02:02:33.437Z,18.31
2018-07-06T02:05:13.510Z,18.31
2018-07-06T02:07:53.685Z,18.32
2018-07-06T02:10:33.780Z,18.22
2018-07-06T02:13:14.435Z,18.28
2018-07-06T02:15:54.687Z,18.22
2018-07-06T02:18:34.739Z,18.41
2018-07-06T02:21:14.891Z,18.36
2018-07-06T02:23:54.880Z,18.37
2018-07-06T02:26:35.054Z,18.45
2018-07-06T02:29:15.141Z,18.26
2018-07-06T02:31:55.299Z,18.19
2018-07-06T02:34:35.391Z,18.20
2018-07-06T02:37:15.642Z,18.01
2018-07-06T02:39:55.831Z,17.86
2018-07-06T02:42:36.608Z,17.90
2018-07-06T02:45:16.831Z,17.92
2018-07-06T02:47:56.879Z,17.81
2018-07-06T02:50:37.031Z,17.92
2018-07-06T02:53:17.219Z,17.91
2018-07-06T02:55:57.265Z,17.81
2018-07-06T02:58:37.422Z,17.78
2018-07-06T03:01:17.914Z,17.71
2018-07-06T03:03:57.978Z,17.73
2018-07-06T03:06:38.278Z,17.98
2018-07-06T03:09:18.307Z,18.05
2018-07-06T03:11:58.409Z,17.86
2018-07-06T03:14:38.435Z,17.78
2018-07-06T03:17:18.596Z,17.68
2018-07-06T03:19:58.601Z,17.51
2018-07-06T03:22:38.603Z,17.28
2018-07-06T03:25:18.816Z,17.21
2018-07-06T03:27:59.186Z,17.20
2018-07-06T03:30:39.310Z,17.10
2018-07-06T03:33:19.487Z,16.99
2018-07-06T03:36:00.691Z,16.99
2018-07-06T03:38:40.840Z,17.16
2018-07-06T03:41:20.939Z,17.31
2018-07-06T03:44:01.110Z,17.45
2018-07-06T03:46:41.244Z,17.52
2018-07-06T03:49:21.476Z,17.70
2018-07-06T03:52:01.495Z,17.52
2018-07-06T03:54:41.776Z,17.43
2018-07-06T03:57:21.847Z,17.49
2018-07-06T04:00:06.744Z,17.39
2018-07-06T04:02:46.821Z,17.55
2018-07-06T04:05:26.988Z,17.47
2018-07-06T04:08:06.974Z,17.52
2018-07-06T04:10:47.127Z,17.67
2018-07-06T04:13:27.117Z,17.55
2018-07-06T04:16:07.804Z,17.78
2018-07-06T04:18:47.853Z,17.96
2018-07-06T04:21:27.919Z,17.98
2018-07-06T04:24:08.583Z,17.99
2018-07-06T04:26:48.803Z,17.91
2018-07-06T04:29:28.911Z,17.92
2018-07-06T04:32:09.118Z,17.73
2018-07-06T04:34:49.105Z,17.98
2018-07-06T04:37:29.742Z,17.95
2018-07-06T04:40:11.846Z,17.96
2018-07-06T04:42:52.040Z,17.96
2018-07-06T04:45:32.042Z,18.00
2018-07-06T04:48:12.286Z,18.02
2018-07-06T04:50:52.251Z,18.12
2018-07-06T04:53:32.583Z,18.18
2018-07-06T04:56:13.255Z,18.32
2018-07-06T04:58:53.369Z,18.44
2018-07-06T05:01:33.867Z,18.79
2018-07-06T05:04:14.000Z,19.03
2018-07-06T05:06:54.121Z,19.31
2018-07-06T05:09:34.147Z,19.36
2018-07-06T05:12:14.783Z,19.35
2018-07-06T05:14:55.063Z,19.69
2018-07-06T05:17:35.118Z,19.75
2018-07-06T05:20:15.066Z,19.73
2018-07-06T05:22:55.054Z,19.21
2018-07-06T05:25:35.296Z,19.00
2018-07-06T05:28:15.226Z,18.88
2018-07-06T05:30:55.288Z,18.93
2018-07-06T05:33:35.334Z,18.83
2018-07-06T05:36:15.579Z,19.07
2018-07-06T05:38:55.657Z,19.17
2018-07-06T05:41:35.795Z,19.52
2018-07-06T05:44:16.270Z,19.52
2018-07-06T05:46:56.330Z,19.67
2018-07-06T05:49:36.555Z,19.63
2018-07-06T05:52:16.675Z,19.78
2018-07-06T05:54:56.562Z,19.73
2018-07-06T05:57:36.790Z,19.67
2018-07-06T06:00:18.380Z,19.73
2018-07-06T06:02:58.483Z,19.53
2018-07-06T06:05:38.615Z,19.65
2018-07-06T06:08:06.419Z,19.20
2018-07-06T06:10:35.847Z,19.66
2018-07-06T06:13:05.191Z,19.28
2018-07-06T06:15:34.281Z,19.26
2018-07-06T06:18:03.236Z,19.52
2018-07-06T06:20:32.486Z,19.57
2018-07-06T06:23:02.450Z,19.50
2018-07-06T06:25:32.278Z,19.49
2018-07-06T06:28:01.706Z,19.55
2018-07-06T06:30:30.875Z,19.38
2018-07-06T06:33:00.029Z,19.49
2018-07-06T06:35:30.722Z,19.77
2018-07-06T06:38:00.038Z,19.59
2018-07-06T06:40:29.631Z,19.64
2018-07-06T06:42:59.151Z,19.68
2018-07-06T06:45:28.423Z,19.80
2018-07-06T06:47:57.403Z,19.99
2018-07-06T06:50:26.661Z,19.82
2018-07-06T06:52:55.884Z,19.74
2018-07-06T06:55:25.023Z,19.80
2018-07-06T06:57:54.575Z,19.93
2018-07-06T07:00:27.533Z,20.04
2018-07-06T07:02:53.271Z,19.81
2018-07-06T07:05:22.536Z,19.71
2018-07-06T07:07:52.870Z,19.70
2018-07-06T07:10:22.066Z,19.81
2018-07-06T07:12:51.392Z,19.93
2018-07-06T07:15:20.438Z,20.07
2018-07-06T07:17:49.733Z,19.80
2018-07-06T07:20:19.545Z,19.73
2018-07-06T07:22:48.739Z,19.63
2018-07-06T07:25:17.875Z,19.61
2018-07-06T07:27:47.189Z,19.95
2018-07-06T07:30:16.437Z,19.95
2018-07-06T07:32:46.203Z,20.04
2018-07-06T07:35:15.200Z,20.00
2018-07-06T07:37:45.177Z,19.98
2018-07-06T07:40:14.375Z,20.07
2018-07-06T07:42:43.919Z,19.91
2018-07-06T07:45:13.132Z,19.90
2018-07-06T07:47:42.449Z,19.83
2018-07-06T07:50:11.588Z,20.00
2018-07-06T07:52:52.307Z,19.86
2018-07-06T07:55:21.455Z,19.86
2018-07-06T07:57:50.750Z,20.16
2018-07-06T08:00:20.790Z,20.48
2018-07-06T08:02:49.996Z,21.22
2018-07-06T08:05:19.254Z,21.62
2018-07-06T08:07:48.350Z,21.70
2018-07-06T08:10:18.275Z,22.16
2018-07-06T08:12:47.601Z,22.27
2018-07-06T08:15:17.040Z,22.01
2018-07-06T08:17:46.150Z,22.03
2018-07-06T08:20:15.367Z,21.62
2018-07-06T08:22:44.872Z,21.28
2018-07-06T08:25:13.929Z,21.81
2018-07-06T08:27:42.908Z,21.37
2018-07-06T08:30:12.096Z,21.24
2018-07-06T08:32:41.155Z,22.07
2018-07-06T08:35:21.282Z,22.15
2018-07-06T08:38:05.873Z,21.81
2018-07-06T08:40:35.446Z,21.37
2018-07-06T08:43:05.923Z,22.62
2018-07-06T08:45:35.791Z,23.37
2018-07-06T08:48:04.890Z,23.51
2018-07-06T08:50:33.841Z,22.91
2018-07-06T08:53:03.011Z,22.86
2018-07-06T08:55:32.242Z,23.47
2018-07-06T08:58:01.363Z,22.69
2018-07-06T09:00:30.348Z,22.85
2018-07-06T09:02:59.454Z,23.03
2018-07-06T09:05:28.553Z,22.59
2018-07-06T09:07:58.078Z,22.99
2018-07-06T09:10:27.584Z,23.31
2018-07-06T09:12:56.750Z,23.53
2018-07-06T09:15:25.937Z,24.11
2018-07-06T09:17:54.912Z,24.88
2018-07-06T09:20:24.345Z,25.42
2018-07-06T09:22:53.546Z,25.75
2018-07-06T09:25:23.040Z,25.45
2018-07-06T09:27:52.048Z,24.38
2018-07-06T09:30:21.138Z,24.85
2018-07-06T09:32:50.072Z,24.70
2018-07-06T09:35:19.330Z,24.05
2018-07-06T09:37:49.112Z,23.81
2018-07-06T09:40:18.236Z,24.46
2018-07-06T09:42:49.036Z,24.37
2018-07-06T09:45:18.292Z,24.27
2018-07-06T09:47:48.251Z,24.19
2018-07-06T09:50:17.487Z,24.15
2018-07-06T09:52:46.440Z,23.90
2018-07-06T09:55:15.571Z,24.80
2018-07-06T09:57:44.674Z,24.27
2018-07-06T10:00:18.549Z,24.41
2018-07-06T10:02:47.862Z,26.52
2018-07-06T10:05:16.891Z,26.05
2018-07-06T10:07:45.814Z,26.09
2018-07-06T10:10:15.027Z,26.81
2018-07-06T10:12:44.049Z,26.73
2018-07-06T10:15:13.465Z,25.02
2018-07-06T10:17:42.653Z,27.29
2018-07-06T10:20:11.755Z,27.50
2018-07-06T10:22:40.850Z,26.67
2018-07-06T10:25:10.213Z,24.66
2018-07-06T10:27:51.024Z,25.05
2018-07-06T10:30:33.690Z,26.11
2018-07-06T10:33:03.312Z,25.81
2018-07-06T10:35:32.641Z,25.54
2018-07-06T10:38:01.958Z,25.11
2018-07-06T10:40:31.194Z,25.41
2018-07-06T10:43:00.531Z,26.24
2018-07-06T10:45:29.690Z,26.94
2018-07-06T10:47:58.928Z,28.45
2018-07-06T10:50:28.034Z,28.61
2018-07-06T10:52:57.195Z,27.81
2018-07-06T10:55:26.432Z,29.25
2018-07-06T10:57:56.226Z,27.83
2018-07-06T11:00:25.454Z,26.19
2018-07-06T11:02:54.515Z,27.02
2018-07-06T11:05:23.795Z,26.50
2018-07-06T11:07:53.061Z,27.25
2018-07-06T11:10:22.268Z,27.34
2018-07-06T11:12:51.280Z,26.55
2018-07-06T11:15:20.844Z,24.93
2018-07-06T11:17:49.976Z,25.64
2018-07-06T11:20:19.120Z,24.38
2018-07-06T11:22:48.192Z,24.76
2018-07-06T11:25:17.132Z,25.15
2018-07-06T11:27:46.202Z,25.52
2018-07-06T11:30:15.499Z,26.15
2018-07-06T11:32:44.795Z,25.71
2018-07-06T11:35:13.889Z,25.60
2018-07-06T11:37:42.985Z,25.45
2018-07-06T11:40:12.090Z,24.95
2018-07-06T11:42:41.189Z,25.44
2018-07-06T11:45:10.382Z,25.74
2018-07-06T11:47:39.556Z,25.77
2018-07-06T11:50:08.613Z,25.98
2018-07-06T11:52:37.856Z,25.48
2018-07-06T11:55:07.084Z,25.68
2018-07-06T11:57:36.267Z,25.83
2018-07-06T12:00:07.257Z,25.69
2018-07-06T12:02:36.425Z,26.06
2018-07-06T12:05:05.769Z,25.89
2018-07-06T12:07:34.881Z,26.27
2018-07-06T12:10:06.958Z,26.22
2018-07-06T12:12:35.909Z,26.14
2018-07-06T12:15:05.542Z,26.30
2018-07-06T12:17:35.430Z,26.64
2018-07-06T12:20:09.366Z,26.62
2018-07-06T12:22:38.483Z,26.49
2018-07-06T12:25:07.900Z,26.68
2018-07-06T12:27:37.096Z,26.41
2018-07-06T12:30:07.606Z,26.73
2018-07-06T12:32:37.530Z,26.50
2018-07-06T12:35:06.642Z,26.21
2018-07-06T12:37:35.963Z,25.91
2018-07-06T12:40:08.383Z,26.25
2018-07-06T12:42:37.594Z,26.21
2018-07-06T12:45:06.711Z,25.49
2018-07-06T12:47:36.036Z,26.05
2018-07-06T12:50:08.874Z,26.31
2018-07-06T12:52:38.873Z,26.24
2018-07-06T12:55:07.948Z,26.78
2018-07-06T12:57:37.233Z,26.65
2018-07-06T13:00:11.231Z,26.87
2018-07-06T13:02:41.503Z,26.88
2018-07-06T13:05:10.707Z,26.84
2018-07-06T13:07:39.817Z,27.25
2018-07-06T13:10:09.337Z,27.23
2018-07-06T13:12:38.397Z,27.58
2018-07-06T13:15:07.711Z,27.44
2018-07-06T13:17:36.886Z,27.36
2018-07-06T13:20:09.667Z,27.36
2018-07-06T13:22:39.110Z,27.48
2018-07-06T13:25:08.719Z,27.51
2018-07-06T13:27:37.944Z,27.33
2018-07-06T13:30:09.292Z,26.98
2018-07-06T13:32:38.569Z,27.48
2018-07-06T13:35:08.536Z,27.36
2018-07-06T13:37:37.746Z,27.55
2018-07-06T13:40:10.779Z,27.21
2018-07-06T13:42:39.943Z,27.38
2018-07-06T13:45:09.440Z,27.73
2018-07-06T13:47:38.583Z,27.90
2018-07-06T13:50:08.967Z,27.87
2018-07-06T13:52:38.147Z,27.31
2018-07-06T13:55:07.975Z,27.00
2018-07-06T13:57:37.121Z,26.70
2018-07-06T14:00:07.965Z,26.54
2018-07-06T14:02:37.211Z,26.36
2018-07-06T14:05:07.383Z,26.96
2018-07-06T14:07:36.750Z,26.89
2018-07-06T14:10:10.222Z,27.23
2018-07-06T14:12:39.238Z,27.70
2018-07-06T14:15:09.196Z,27.95
2018-07-06T14:17:38.342Z,27.84
2018-07-06T14:20:14.846Z,27.77
2018-07-06T14:22:44.217Z,27.67
2018-07-06T14:25:13.508Z,27.55
2018-07-06T14:27:42.690Z,26.96
2018-07-06T14:30:12.507Z,26.91
2018-07-06T14:32:41.673Z,27.04
2018-07-06T14:35:12.320Z,26.92
2018-07-06T14:37:41.688Z,27.20
2018-07-06T14:40:12.343Z,27.05
2018-07-06T14:42:41.689Z,27.05
2018-07-06T14:45:11.256Z,27.32
2018-07-06T14:47:40.514Z,27.54
2018-07-06T14:50:09.848Z,27.91
2018-07-06T14:52:39.377Z,27.59
2018-07-06T14:55:09.475Z,27.37
2018-07-06T14:57:38.941Z,27.12
2018-07-06T15:00:13.911Z,27.45
2018-07-06T15:02:43.206Z,27.85
2018-07-06T15:05:12.834Z,27.94
2018-07-06T15:07:42.183Z,27.45
2018-07-06T15:10:12.509Z,27.30
2018-07-06T15:12:41.828Z,27.07
2018-07-06T15:15:11.359Z,26.96
2018-07-06T15:17:40.377Z,26.82
2018-07-06T15:20:10.270Z,26.61
2018-07-06T15:22:39.878Z,26.46
2018-07-06T15:25:11.639Z,26.28
2018-07-06T15:27:41.327Z,26.21
2018-07-06T15:30:10.647Z,25.84
2018-07-06T15:32:39.750Z,25.92
2018-07-06T15:35:08.923Z,25.88
2018-07-06T15:37:39.049Z,25.83
2018-07-06T15:40:11.335Z,25.71
2018-07-06T15:42:41.151Z,25.58
2018-07-06T15:45:10.539Z,25.37
2018-07-06T15:47:39.585Z,25.42
2018-07-06T15:50:12.993Z,25.27
2018-07-06T15:52:42.215Z,25.31
2018-07-06T15:55:11.347Z,25.10
2018-07-06T15:57:40.335Z,25.06
2018-07-06T16:00:14.688Z,25.19
2018-07-06T16:02:44.859Z,25.20
2018-07-06T16:05:15.651Z,24.97
2018-07-06T16:07:44.599Z,25.20
2018-07-06T16:10:14.480Z,25.14
2018-07-06T16:12:43.742Z,25.16
2018-07-06T16:15:14.222Z,25.21
2018-07-06T16:17:43.545Z,25.31
2018-07-06T16:20:15.079Z,25.55
2018-07-06T16:22:44.255Z,25.76
2018-07-06T16:25:14.394Z,26.01
2018-07-06T16:27:44.306Z,26.35
2018-07-06T16:30:15.169Z,26.50
2018-07-06T16:32:45.466Z,26.69
2018-07-06T16:35:15.131Z,26.62
2018-07-06T16:37:44.671Z,26.61
2018-07-06T16:40:16.013Z,26.64
2018-07-06T16:42:46.915Z,26.67
2018-07-06T16:45:17.716Z,26.40
2018-07-06T16:47:46.876Z,26.31
2018-07-06T16:50:16.564Z,26.33
2018-07-06T16:52:45.588Z,26.43
2018-07-06T16:55:14.683Z,26.41
2018-07-06T16:57:43.682Z,26.39
2018-07-06T17:00:15.976Z,26.27
2018-07-06T17:02:45.275Z,26.37
2018-07-06T17:05:14.575Z,26.38
2018-07-06T17:07:44.740Z,26.46
2018-07-06T17:10:14.705Z,26.38
2018-07-06T17:12:44.646Z,26.45
2018-07-06T17:15:13.895Z,26.53
2018-07-06T17:17:42.928Z,26.39
2018-07-06T17:20:14.369Z,26.35
2018-07-06T17:22:43.376Z,25.94
2018-07-06T17:25:12.531Z,25.90
2018-07-06T17:27:41.591Z,25.89
2018-07-06T17:30:14.008Z,25.95
2018-07-06T17:32:43.059Z,25.92
2018-07-06T17:35:12.090Z,25.98
2018-07-06T17:37:43.238Z,25.85
2018-07-06T17:40:15.716Z,25.77
2018-07-06T17:42:45.147Z,25.83
2018-07-06T17:45:14.166Z,25.60
2018-07-06T17:47:43.378Z,25.63
2018-07-06T17:50:13.031Z,25.64
2018-07-06T17:52:42.226Z,25.61
2018-07-06T17:55:11.836Z,25.62
2018-07-06T17:57:41.779Z,25.54
2018-07-06T18:00:13.565Z,25.51
2018-07-06T18:02:44.807Z,25.42
2018-07-06T18:05:14.615Z,25.33
2018-07-06T18:07:44.681Z,25.32
2018-07-06T18:10:17.340Z,25.31
2018-07-06T18:12:47.473Z,25.49
2018-07-06T18:15:16.797Z,25.31
2018-07-06T18:17:46.686Z,25.21
2018-07-06T18:20:17.215Z,25.16
2018-07-06T18:22:47.138Z,25.23
2018-07-06T18:25:16.434Z,25.30
2018-07-06T18:27:45.730Z,25.22
2018-07-06T18:30:15.737Z,25.10
2018-07-06T18:32:46.077Z,25.03
2018-07-06T18:35:16.472Z,25.06
2018-07-06T18:37:46.067Z,25.05
2018-07-06T18:40:16.007Z,25.09
2018-07-06T18:42:45.915Z,25.08
2018-07-06T18:45:15.417Z,25.00
2018-07-06T18:47:45.734Z,25.04
2018-07-06T18:50:15.874Z,25.10
2018-07-06T18:52:45.069Z,25.06
2018-07-06T18:55:14.595Z,25.07
2018-07-06T18:57:43.637Z,25.03
2018-07-06T19:00:14.380Z,24.97
2018-07-06T19:02:43.381Z,24.85
2018-07-06T19:05:13.817Z,25.01
2018-07-06T19:07:43.073Z,24.97
2018-07-06T19:10:16.036Z,25.02
2018-07-06T19:12:45.235Z,24.89
2018-07-06T19:15:14.395Z,24.83
2018-07-06T19:17:43.431Z,24.83
2018-07-06T19:20:14.210Z,24.69
2018-07-06T19:22:44.357Z,24.63
2018-07-06T19:25:14.260Z,24.73
2018-07-06T19:27:44.189Z,24.56
2018-07-06T19:30:14.388Z,24.45
2018-07-06T19:32:43.716Z,24.45
2018-07-06T19:35:13.597Z,24.38
2018-07-06T19:37:42.731Z,24.26
2018-07-06T19:40:14.363Z,24.25
2018-07-06T19:42:43.509Z,24.16
2018-07-06T19:45:12.814Z,24.14
2018-07-06T19:47:42.492Z,23.89
2018-07-06T19:50:14.975Z,23.92
2018-07-06T19:52:44.322Z,23.85
2018-07-06T19:55:14.285Z,23.63
2018-07-06T19:57:44.312Z,23.65
2018-07-06T20:00:15.748Z,23.65
2018-07-06T20:02:46.476Z,23.64
2018-07-06T20:05:15.878Z,23.57
2018-07-06T20:07:45.405Z,23.52
2018-07-06T20:10:17.280Z,23.45
2018-07-06T20:12:46.863Z,23.41
2018-07-06T20:15:16.076Z,23.24
2018-07-06T20:17:45.407Z,23.26
2018-07-06T20:20:15.067Z,23.32
2018-07-06T20:22:44.570Z,23.39
2018-07-06T20:25:13.819Z,23.09
2018-07-06T20:27:42.962Z,23.16
2018-07-06T20:30:14.932Z,23.07
2018-07-06T20:32:44.566Z,22.91
2018-07-06T20:35:14.155Z,22.79
2018-07-06T20:37:43.575Z,22.80
2018-07-06T20:40:15.551Z,22.80
2018-07-06T20:42:45.928Z,22.73
2018-07-06T20:45:15.150Z,22.60
2018-07-06T20:47:44.308Z,22.62
2018-07-06T20:50:17.382Z,22.55
2018-07-06T20:52:46.683Z,22.52
2018-07-06T20:55:16.982Z,22.36
2018-07-06T20:57:46.295Z,22.25
2018-07-06T21:00:17.443Z,22.26
2018-07-06T21:02:46.631Z,22.23
2018-07-06T21:05:15.942Z,22.21
2018-07-06T21:07:46.394Z,22.06
2018-07-06T21:10:15.967Z,22.12
2018-07-06T21:12:45.531Z,22.14
2018-07-06T21:15:14.947Z,22.11
2018-07-06T21:17:44.035Z,22.22
2018-07-06T21:20:13.542Z,22.06
2018-07-06T21:22:43.568Z,21.91
2018-07-06T21:25:12.619Z,21.95
2018-07-06T21:27:41.916Z,21.83
2018-07-06T21:30:11.369Z,21.73
2018-07-06T21:32:41.420Z,21.60
2018-07-06T21:35:10.563Z,21.59
2018-07-06T21:37:39.806Z,21.56
2018-07-06T21:40:09.312Z,21.64
2018-07-06T21:42:38.836Z,21.57
2018-07-06T21:45:08.179Z,21.64
2018-07-06T21:47:37.171Z,21.51
2018-07-06T21:50:08.634Z,21.42
2018-07-06T21:52:38.779Z,21.31
2018-07-06T21:55:07.836Z,21.29
2018-07-06T21:57:37.441Z,21.30
2018-07-06T22:00:08.330Z,21.27
2018-07-06T22:02:38.181Z,21.15
2018-07-06T22:05:07.630Z,21.09
2018-07-06T22:07:37.292Z,21.09
2018-07-06T22:10:08.375Z,20.99
2018-07-06T22:12:37.620Z,20.91
2018-07-06T22:15:06.765Z,20.90
2018-07-06T22:17:35.772Z,20.81
2018-07-06T22:20:08.181Z,20.91
2018-07-06T22:22:37.465Z,20.89
2018-07-06T22:25:07.145Z,20.90
2018-07-06T22:27:36.102Z,20.79
2018-07-06T22:30:08.452Z,20.72
2018-07-06T22:32:37.474Z,20.64
2018-07-06T22:35:06.641Z,20.57
2018-07-06T22:37:35.759Z,20.52
2018-07-06T22:40:08.170Z,20.43
2018-07-06T22:42:37.131Z,20.51
2018-07-06T22:45:06.215Z,20.59
2018-07-06T22:47:35.142Z,20.65
2018-07-06T22:50:07.263Z,20.54
2018-07-06T22:52:36.219Z,20.38
2018-07-06T22:55:05.417Z,20.33
2018-07-06T22:57:34.393Z,20.32
2018-07-06T23:00:06.782Z,20.26
2018-07-06T23:02:36.018Z,20.16
2018-07-06T23:05:10.872Z,20.05
2018-07-06T23:07:39.897Z,20.14
2018-07-06T23:10:09.082Z,20.01
2018-07-06T23:12:39.219Z,19.91
2018-07-06T23:15:08.202Z,19.45
2018-07-06T23:17:37.179Z,19.87
2018-07-06T23:20:10.656Z,19.85
2018-07-06T23:23:05.597Z,19.73
2018-07-06T23:25:35.999Z,19.67
2018-07-06T23:28:05.044Z,19.64
2018-07-06T23:30:34.363Z,19.59
2018-07-06T23:33:04.639Z,19.36
2018-07-06T23:35:33.874Z,19.46
2018-07-06T23:38:02.904Z,19.41
2018-07-06T23:40:32.128Z,19.41
2018-07-06T23:43:01.088Z,19.28
2018-07-06T23:45:30.184Z,19.43
2018-07-06T23:47:59.161Z,19.14
2018-07-06T23:50:28.365Z,19.23
2018-07-06T23:52:57.510Z,19.34
2018-07-06T23:55:26.521Z,19.27
2018-07-06T23:57:55.686Z,19.25
